sensor_id;sensor_type;location;lat;lon;timestamp;temperature;humidity
47757;SHT35;22147;52.388;13.390;2023-02-15T00:01:10;1.07;91.38
47757;SHT35;22147;52.388;13.390;2023-02-15T00:03:41;1.00;91.41
47757;SHT35;22147;52.388;13.390;2023-02-15T00:06:10;0.95;91.47
47757;SHT35;22147;52.388;13.390;2023-02-15T00:08:40;0.91;91.49
47757;SHT35;22147;52.388;13.390;2023-02-15T00:11:16;0.84;91.51
47757;SHT35;22147;52.388;13.390;2023-02-15T00:16:50;0.75;91.57
47757;SHT35;22147;52.388;13.390;2023-02-15T00:19:21;0.74;91.60
47757;SHT35;22147;52.388;13.390;2023-02-15T00:21:49;0.68;91.59
47757;SHT35;22147;52.388;13.390;2023-02-15T00:24:19;0.64;91.63
47757;SHT35;22147;52.388;13.390;2023-02-15T00:26:50;0.61;91.60
47757;SHT35;22147;52.388;13.390;2023-02-15T00:29:20;0.57;91.61
47757;SHT35;22147;52.388;13.390;2023-02-15T00:31:51;0.53;91.63
47757;SHT35;22147;52.388;13.390;2023-02-15T00:34:26;0.48;91.65
47757;SHT35;22147;52.388;13.390;2023-02-15T00:36:59;0.45;91.67
47757;SHT35;22147;52.388;13.390;2023-02-15T00:39:29;0.44;91.64
47757;SHT35;22147;52.388;13.390;2023-02-15T00:41:59;0.37;91.69
47757;SHT35;22147;52.388;13.390;2023-02-15T00:44:30;0.34;91.76
47757;SHT35;22147;52.388;13.390;2023-02-15T00:47:00;0.30;91.75
47757;SHT35;22147;52.388;13.390;2023-02-15T00:49:30;0.33;91.76
47757;SHT35;22147;52.388;13.390;2023-02-15T00:52:00;0.27;91.78
47757;SHT35;22147;52.388;13.390;2023-02-15T00:54:30;0.24;91.79
47757;SHT35;22147;52.388;13.390;2023-02-15T00:57:00;0.20;91.78
47757;SHT35;22147;52.388;13.390;2023-02-15T00:59:31;0.18;91.78
47757;SHT35;22147;52.388;13.390;2023-02-15T01:02:01;0.14;91.78
47757;SHT35;22147;52.388;13.390;2023-02-15T01:04:31;0.10;91.81
47757;SHT35;22147;52.388;13.390;2023-02-15T01:07:01;0.10;91.85
47757;SHT35;22147;52.388;13.390;2023-02-15T01:09:33;0.09;91.85
47757;SHT35;22147;52.388;13.390;2023-02-15T01:12:03;0.03;91.91
47757;SHT35;22147;52.388;13.390;2023-02-15T01:14:34;-0.03;91.95
47757;SHT35;22147;52.388;13.390;2023-02-15T01:17:04;-0.07;91.98
47757;SHT35;22147;52.388;13.390;2023-02-15T01:19:34;-0.08;91.99
47757;SHT35;22147;52.388;13.390;2023-02-15T01:22:05;-0.12;92.03
47757;SHT35;22147;52.388;13.390;2023-02-15T01:24:33;-0.15;92.06
47757;SHT35;22147;52.388;13.390;2023-02-15T01:27:01;-0.18;92.09
47757;SHT35;22147;52.388;13.390;2023-02-15T01:29:30;-0.19;92.10
47757;SHT35;22147;52.388;13.390;2023-02-15T01:31:58;-0.26;92.11
47757;SHT35;22147;52.388;13.390;2023-02-15T01:34:30;-0.28;92.10
47757;SHT35;22147;52.388;13.390;2023-02-15T01:37:00;-0.31;92.13
47757;SHT35;22147;52.388;13.390;2023-02-15T01:39:30;-0.33;92.19
47757;SHT35;22147;52.388;13.390;2023-02-15T01:42:00;-0.38;92.18
47757;SHT35;22147;52.388;13.390;2023-02-15T01:44:58;-0.35;92.20
47757;SHT35;22147;52.388;13.390;2023-02-15T01:47:51;-0.42;92.23
47757;SHT35;22147;52.388;13.390;2023-02-15T01:50:54;-0.43;92.26
47757;SHT35;22147;52.388;13.390;2023-02-15T01:53:42;-0.49;92.24
47757;SHT35;22147;52.388;13.390;2023-02-15T01:56:24;-0.49;92.33
47757;SHT35;22147;52.388;13.390;2023-02-15T01:59:06;-0.53;92.38
47757;SHT35;22147;52.388;13.390;2023-02-15T02:01:35;-0.53;92.43
47757;SHT35;22147;52.388;13.390;2023-02-15T02:04:23;-0.55;92.46
47757;SHT35;22147;52.388;13.390;2023-02-15T02:06:59;-0.58;92.46
47757;SHT35;22147;52.388;13.390;2023-02-15T02:09:30;-0.62;92.51
47757;SHT35;22147;52.388;13.390;2023-02-15T02:12:01;-0.62;92.55
47757;SHT35;22147;52.388;13.390;2023-02-15T02:14:32;-0.61;92.53
47757;SHT35;22147;52.388;13.390;2023-02-15T02:36:41;-0.76;92.78
47757;SHT35;22147;52.388;13.390;2023-02-15T02:42:59;-0.70;93.00
47757;SHT35;22147;52.388;13.390;2023-02-15T02:45:44;-0.65;93.16
47757;SHT35;22147;52.388;13.390;2023-02-15T02:48:24;-0.58;93.30
47757;SHT35;22147;52.388;13.390;2023-02-15T02:50:54;-0.39;93.55
47757;SHT35;22147;52.388;13.390;2023-02-15T02:53:28;-0.24;93.74
47757;SHT35;22147;52.388;13.390;2023-02-15T02:56:36;-0.19;93.84
47757;SHT35;22147;52.388;13.390;2023-02-15T02:59:22;-0.21;93.84
47757;SHT35;22147;52.388;13.390;2023-02-15T03:02:13;-0.12;94.01
47757;SHT35;22147;52.388;13.390;2023-02-15T03:04:55;-0.12;93.99
47757;SHT35;22147;52.388;13.390;2023-02-15T03:07:31;-0.10;94.04
47757;SHT35;22147;52.388;13.390;2023-02-15T03:10:08;-0.14;94.05
47757;SHT35;22147;52.388;13.390;2023-02-15T03:12:41;-0.12;94.17
47757;SHT35;22147;52.388;13.390;2023-02-15T03:15:28;-0.15;94.17
47757;SHT35;22147;52.388;13.390;2023-02-15T03:18:31;-0.12;94.28
47757;SHT35;22147;52.388;13.390;2023-02-15T03:21:11;-0.07;94.36
47757;SHT35;22147;52.388;13.390;2023-02-15T03:24:09;-0.10;94.33
47757;SHT35;22147;52.388;13.390;2023-02-15T03:26:46;-0.15;94.34
47757;SHT35;22147;52.388;13.390;2023-02-15T03:29:25;-0.22;94.32
47757;SHT35;22147;52.388;13.390;2023-02-15T03:32:05;-0.29;94.34
47757;SHT35;22147;52.388;13.390;2023-02-15T03:34:37;-0.38;94.35
47757;SHT35;22147;52.388;13.390;2023-02-15T03:37:37;-0.31;94.45
47757;SHT35;22147;52.388;13.390;2023-02-15T03:40:30;-0.28;94.54
47757;SHT35;22147;52.388;13.390;2023-02-15T03:44:13;-0.25;94.54
47757;SHT35;22147;52.388;13.390;2023-02-15T03:47:16;-0.25;94.51
47757;SHT35;22147;52.388;13.390;2023-02-15T03:50:09;-0.38;94.43
47757;SHT35;22147;52.388;13.390;2023-02-15T03:53:08;-0.36;94.50
47757;SHT35;22147;52.388;13.390;2023-02-15T03:55:39;-0.35;94.54
47757;SHT35;22147;52.388;13.390;2023-02-15T03:58:09;-0.41;94.53
47757;SHT35;22147;52.388;13.390;2023-02-15T04:04:23;-0.43;94.57
47757;SHT35;22147;52.388;13.390;2023-02-15T04:06:54;-0.36;94.59
47757;SHT35;22147;52.388;13.390;2023-02-15T04:09:24;-0.49;94.51
47757;SHT35;22147;52.388;13.390;2023-02-15T04:12:18;-0.56;94.50
47757;SHT35;22147;52.388;13.390;2023-02-15T04:14:48;-0.63;94.48
47757;SHT35;22147;52.388;13.390;2023-02-15T04:17:38;-0.70;94.45
47757;SHT35;22147;52.388;13.390;2023-02-15T04:20:09;-0.76;94.50
47757;SHT35;22147;52.388;13.390;2023-02-15T04:22:57;-0.80;94.47
47757;SHT35;22147;52.388;13.390;2023-02-15T04:25:46;-0.86;94.49
47757;SHT35;22147;52.388;13.390;2023-02-15T04:28:15;-0.87;94.49
47757;SHT35;22147;52.388;13.390;2023-02-15T04:30:46;-0.89;94.50
47757;SHT35;22147;52.388;13.390;2023-02-15T04:33:16;-0.87;94.55
47757;SHT35;22147;52.388;13.390;2023-02-15T04:35:46;-0.90;94.57
47757;SHT35;22147;52.388;13.390;2023-02-15T04:38:16;-0.91;94.58
47757;SHT35;22147;52.388;13.390;2023-02-15T04:40:50;-0.94;94.56
47757;SHT35;22147;52.388;13.390;2023-02-15T04:43:19;-0.99;94.61
47757;SHT35;22147;52.388;13.390;2023-02-15T04:45:50;-1.01;94.62
47757;SHT35;22147;52.388;13.390;2023-02-15T04:48:20;-1.08;94.61
47757;SHT35;22147;52.388;13.390;2023-02-15T04:50:50;-1.10;94.60
47757;SHT35;22147;52.388;13.390;2023-02-15T04:53:19;-1.15;94.58
47757;SHT35;22147;52.388;13.390;2023-02-15T04:55:49;-1.17;94.60
47757;SHT35;22147;52.388;13.390;2023-02-15T04:58:19;-1.15;94.60
47757;SHT35;22147;52.388;13.390;2023-02-15T05:00:49;-1.12;94.65
47757;SHT35;22147;52.388;13.390;2023-02-15T05:03:18;-1.05;94.70
47757;SHT35;22147;52.388;13.390;2023-02-15T05:05:46;-0.90;94.88
47757;SHT35;22147;52.388;13.390;2023-02-15T05:08:15;-0.83;94.87
47757;SHT35;22147;52.388;13.390;2023-02-15T05:10:43;-0.82;94.85
47757;SHT35;22147;52.388;13.390;2023-02-15T05:13:12;-0.79;94.94
47757;SHT35;22147;52.388;13.390;2023-02-15T05:15:40;-0.73;94.90
47757;SHT35;22147;52.388;13.390;2023-02-15T05:18:12;-0.73;94.93
47757;SHT35;22147;52.388;13.390;2023-02-15T05:20:40;-0.72;94.88
47757;SHT35;22147;52.388;13.390;2023-02-15T05:23:09;-0.74;94.88
47757;SHT35;22147;52.388;13.390;2023-02-15T05:25:38;-0.76;94.89
47757;SHT35;22147;52.388;13.390;2023-02-15T05:28:27;-0.82;94.89
47757;SHT35;22147;52.388;13.390;2023-02-15T05:31:17;-0.69;95.02
47757;SHT35;22147;52.388;13.390;2023-02-15T05:33:47;-0.80;94.90
47757;SHT35;22147;52.388;13.390;2023-02-15T05:36:14;-0.76;94.97
47757;SHT35;22147;52.388;13.390;2023-02-15T05:38:44;-0.62;95.08
47757;SHT35;22147;52.388;13.390;2023-02-15T05:41:14;-0.70;94.92
47757;SHT35;22147;52.388;13.390;2023-02-15T05:43:44;-0.76;94.89
47757;SHT35;22147;52.388;13.390;2023-02-15T05:46:14;-0.76;94.85
47757;SHT35;22147;52.388;13.390;2023-02-15T05:48:43;-0.72;94.99
47757;SHT35;22147;52.388;13.390;2023-02-15T05:51:13;-0.66;95.02
47757;SHT35;22147;52.388;13.390;2023-02-15T05:53:44;-0.68;94.92
47757;SHT35;22147;52.388;13.390;2023-02-15T05:56:14;-0.76;94.92
47757;SHT35;22147;52.388;13.390;2023-02-15T05:58:44;-0.70;94.83
47757;SHT35;22147;52.388;13.390;2023-02-15T06:01:18;-0.77;94.68
47757;SHT35;22147;52.388;13.390;2023-02-15T06:03:48;-0.80;94.61
47757;SHT35;22147;52.388;13.390;2023-02-15T06:06:17;-0.72;94.73
47757;SHT35;22147;52.388;13.390;2023-02-15T06:08:45;-0.69;94.65
47757;SHT35;22147;52.388;13.390;2023-02-15T06:11:13;-0.79;94.52
47757;SHT35;22147;52.388;13.390;2023-02-15T06:13:42;-0.80;94.53
47757;SHT35;22147;52.388;13.390;2023-02-15T06:16:10;-0.77;94.60
47757;SHT35;22147;52.388;13.390;2023-02-15T06:18:39;-0.82;94.60
47757;SHT35;22147;52.388;13.390;2023-02-15T06:21:07;-0.87;94.59
47757;SHT35;22147;52.388;13.390;2023-02-15T06:23:35;-0.94;94.62
47757;SHT35;22147;52.388;13.390;2023-02-15T06:26:04;-0.74;94.89
47757;SHT35;22147;52.388;13.390;2023-02-15T06:28:32;-0.76;94.70
47757;SHT35;22147;52.388;13.390;2023-02-15T06:31:01;-0.70;94.58
47757;SHT35;22147;52.388;13.390;2023-02-15T06:33:29;-0.73;94.41
47757;SHT35;22147;52.388;13.390;2023-02-15T06:36:04;-0.80;94.33
47757;SHT35;22147;52.388;13.390;2023-02-15T06:38:34;-0.94;94.27
47757;SHT35;22147;52.388;13.390;2023-02-15T06:41:04;-0.94;94.39
47757;SHT35;22147;52.388;13.390;2023-02-15T06:43:35;-0.96;94.45
47757;SHT35;22147;52.388;13.390;2023-02-15T06:46:05;-1.03;94.54
47757;SHT35;22147;52.388;13.390;2023-02-15T06:48:35;-0.97;94.72
47757;SHT35;22147;52.388;13.390;2023-02-15T06:51:05;-0.86;94.81
47757;SHT35;22147;52.388;13.390;2023-02-15T06:53:35;-0.68;94.83
47757;SHT35;22147;52.388;13.390;2023-02-15T06:56:07;-0.48;94.67
47757;SHT35;22147;52.388;13.390;2023-02-15T06:58:41;-0.51;93.85
47757;SHT35;22147;52.388;13.390;2023-02-15T07:01:12;-0.72;93.45
47757;SHT35;22147;52.388;13.390;2023-02-15T07:03:42;-0.70;93.58
47757;SHT35;22147;52.388;13.390;2023-02-15T07:06:12;-0.73;93.71
47757;SHT35;22147;52.388;13.390;2023-02-15T07:08:42;-0.65;93.94
47757;SHT35;22147;52.388;13.390;2023-02-15T07:11:12;-0.76;93.96
47757;SHT35;22147;52.388;13.390;2023-02-15T07:14:01;-0.77;93.98
47757;SHT35;22147;52.388;13.390;2023-02-15T07:16:31;-0.79;94.05
47757;SHT35;22147;52.388;13.390;2023-02-15T07:19:01;-0.73;94.15
47757;SHT35;22147;52.388;13.390;2023-02-15T07:21:31;-0.69;94.15
47757;SHT35;22147;52.388;13.390;2023-02-15T07:24:01;-0.70;94.21
47757;SHT35;22147;52.388;13.390;2023-02-15T07:26:32;-0.53;94.27
47757;SHT35;22147;52.388;13.390;2023-02-15T07:29:00;-0.56;94.13
47757;SHT35;22147;52.388;13.390;2023-02-15T07:31:28;-0.41;93.81
47757;SHT35;22147;52.388;13.390;2023-02-15T07:33:56;-0.48;93.52
47757;SHT35;22147;52.388;13.390;2023-02-15T07:36:25;-0.19;93.15
47757;SHT35;22147;52.388;13.390;2023-02-15T07:38:53;-0.45;92.17
47757;SHT35;22147;52.388;13.390;2023-02-15T07:41:21;-0.46;92.25
47757;SHT35;22147;52.388;13.390;2023-02-15T07:43:50;-0.53;92.46
47757;SHT35;22147;52.388;13.390;2023-02-15T07:46:18;-0.45;92.88
47757;SHT35;22147;52.388;13.390;2023-02-15T07:48:49;-0.41;92.81
47757;SHT35;22147;52.388;13.390;2023-02-15T07:51:17;-0.31;92.77
47757;SHT35;22147;52.388;13.390;2023-02-15T07:53:46;-0.24;92.33
47757;SHT35;22147;52.388;13.390;2023-02-15T07:56:15;-0.66;92.13
47757;SHT35;22147;52.388;13.390;2023-02-15T07:58:43;-0.45;92.80
47757;SHT35;22147;52.388;13.390;2023-02-15T08:01:35;-0.28;92.67
47757;SHT35;22147;52.388;13.390;2023-02-15T08:04:07;-0.18;92.42
47757;SHT35;22147;52.388;13.390;2023-02-15T08:06:37;-0.15;92.10
47757;SHT35;22147;52.388;13.390;2023-02-15T08:09:08;-0.11;90.92
47757;SHT35;22147;52.388;13.390;2023-02-15T08:11:39;-0.17;90.83
47757;SHT35;22147;52.388;13.390;2023-02-15T08:14:19;-0.25;90.83
47757;SHT35;22147;52.388;13.390;2023-02-15T08:16:53;-0.24;91.35
47757;SHT35;22147;52.388;13.390;2023-02-15T08:19:30;-0.26;91.55
47757;SHT35;22147;52.388;13.390;2023-02-15T08:22:05;-0.14;91.59
47757;SHT35;22147;52.388;13.390;2023-02-15T08:24:36;-0.14;91.69
47757;SHT35;22147;52.388;13.390;2023-02-15T08:27:08;-0.12;91.96
47757;SHT35;22147;52.388;13.390;2023-02-15T08:29:39;-0.05;92.36
47757;SHT35;22147;52.388;13.390;2023-02-15T08:32:12;-0.07;92.43
47757;SHT35;22147;52.388;13.390;2023-02-15T08:34:41;-0.05;92.57
47757;SHT35;22147;52.388;13.390;2023-02-15T08:37:10;0.10;92.47
47757;SHT35;22147;52.388;13.390;2023-02-15T08:39:38;0.07;92.40
47757;SHT35;22147;52.388;13.390;2023-02-15T08:42:10;0.30;92.24
47757;SHT35;22147;52.388;13.390;2023-02-15T08:44:39;0.41;91.68
47757;SHT35;22147;52.388;13.390;2023-02-15T08:47:09;0.41;91.78
47757;SHT35;22147;52.388;13.390;2023-02-15T08:49:39;0.53;92.01
47757;SHT35;22147;52.388;13.390;2023-02-15T08:52:09;0.60;91.89
47757;SHT35;22147;52.388;13.390;2023-02-15T08:54:38;0.51;91.79
47757;SHT35;22147;52.388;13.390;2023-02-15T08:57:09;0.72;91.72
47757;SHT35;22147;52.388;13.390;2023-02-15T08:59:39;0.93;90.70
47757;SHT35;22147;52.388;13.390;2023-02-15T09:02:10;0.95;89.82
47757;SHT35;22147;52.388;13.390;2023-02-15T09:04:40;0.93;90.47
47757;SHT35;22147;52.388;13.390;2023-02-15T09:07:09;1.06;90.67
47757;SHT35;22147;52.388;13.390;2023-02-15T09:09:39;1.16;89.82
47757;SHT35;22147;52.388;13.390;2023-02-15T09:12:12;1.19;89.74
47757;SHT35;22147;52.388;13.390;2023-02-15T09:14:44;1.22;89.70
47757;SHT35;22147;52.388;13.390;2023-02-15T09:17:11;1.32;89.58
47757;SHT35;22147;52.388;13.390;2023-02-15T09:19:41;1.16;89.40
47757;SHT35;22147;52.388;13.390;2023-02-15T09:22:11;1.13;90.39
47757;SHT35;22147;52.388;13.390;2023-02-15T09:24:41;1.24;90.94
47757;SHT35;22147;52.388;13.390;2023-02-15T09:27:11;1.54;90.18
47757;SHT35;22147;52.388;13.390;2023-02-15T09:29:41;1.71;89.23
47757;SHT35;22147;52.388;13.390;2023-02-15T09:32:14;1.85;88.29
47757;SHT35;22147;52.388;13.390;2023-02-15T09:34:43;1.81;87.95
47757;SHT35;22147;52.388;13.390;2023-02-15T09:37:13;1.82;88.85
47757;SHT35;22147;52.388;13.390;2023-02-15T09:39:43;1.85;89.53
47757;SHT35;22147;52.388;13.390;2023-02-15T09:42:30;1.88;89.63
47757;SHT35;22147;52.388;13.390;2023-02-15T10:01:15;2.60;87.55
47757;SHT35;22147;52.388;13.390;2023-02-15T10:13:53;3.11;87.10
47757;SHT35;22147;52.388;13.390;2023-02-15T10:17:03;2.91;87.19
47757;SHT35;22147;52.388;13.390;2023-02-15T10:20:18;3.05;87.78
47757;SHT35;22147;52.388;13.390;2023-02-15T10:26:19;3.12;86.11
47757;SHT35;22147;52.388;13.390;2023-02-15T10:28:53;2.54;88.05
47757;SHT35;22147;52.388;13.390;2023-02-15T10:32:27;3.07;88.77
47757;SHT35;22147;52.388;13.390;2023-02-15T10:50:57;3.94;85.69
47757;SHT35;22147;52.388;13.390;2023-02-15T10:57:04;4.76;84.29
47757;SHT35;22147;52.388;13.390;2023-02-15T11:00:25;4.65;81.58
47757;SHT35;22147;52.388;13.390;2023-02-15T11:03:43;4.91;83.29
47757;SHT35;22147;52.388;13.390;2023-02-15T11:06:21;5.38;82.19
47757;SHT35;22147;52.388;13.390;2023-02-15T11:09:03;5.36;81.82
47757;SHT35;22147;52.388;13.390;2023-02-15T11:11:45;5.41;80.99
47757;SHT35;22147;52.388;13.390;2023-02-15T11:14:52;5.30;81.42
47757;SHT35;22147;52.388;13.390;2023-02-15T11:17:41;5.62;79.88
47757;SHT35;22147;52.388;13.390;2023-02-15T11:20:37;5.21;81.01
47757;SHT35;22147;52.388;13.390;2023-02-15T11:23:16;5.58;81.98
47757;SHT35;22147;52.388;13.390;2023-02-15T11:26:03;6.06;81.31
47757;SHT35;22147;52.388;13.390;2023-02-15T11:28:52;6.35;79.89
47757;SHT35;22147;52.388;13.390;2023-02-15T11:31:29;6.53;79.98
47757;SHT35;22147;52.388;13.390;2023-02-15T11:37:16;6.55;77.60
47757;SHT35;22147;52.388;13.390;2023-02-15T11:39:52;6.35;79.18
47757;SHT35;22147;52.388;13.390;2023-02-15T11:42:27;6.61;78.35
47757;SHT35;22147;52.388;13.390;2023-02-15T11:45:28;6.72;78.65
47757;SHT35;22147;52.388;13.390;2023-02-15T11:48:01;6.40;79.07
47757;SHT35;22147;52.388;13.390;2023-02-15T11:50:39;6.17;79.49
47757;SHT35;22147;52.388;13.390;2023-02-15T11:53:18;6.27;80.28
47757;SHT35;22147;52.388;13.390;2023-02-15T11:55:51;6.35;80.17
47757;SHT35;22147;52.388;13.390;2023-02-15T11:59:21;6.89;78.46
47757;SHT35;22147;52.388;13.390;2023-02-15T12:01:54;6.73;78.68
47757;SHT35;22147;52.388;13.390;2023-02-15T12:04:42;6.86;78.61
47757;SHT35;22147;52.388;13.390;2023-02-15T12:07:24;6.86;78.92
47757;SHT35;22147;52.388;13.390;2023-02-15T12:10:38;6.90;78.51
47757;SHT35;22147;52.388;13.390;2023-02-15T12:13:19;6.68;78.69
47757;SHT35;22147;52.388;13.390;2023-02-15T12:15:59;6.88;79.20
47757;SHT35;22147;52.388;13.390;2023-02-15T12:18:44;7.16;77.95
47757;SHT35;22147;52.388;13.390;2023-02-15T12:21:41;7.38;77.14
47757;SHT35;22147;52.388;13.390;2023-02-15T12:24:31;7.40;77.42
47757;SHT35;22147;52.388;13.390;2023-02-15T12:27:29;7.50;77.38
47757;SHT35;22147;52.388;13.390;2023-02-15T12:30:20;7.95;75.56
47757;SHT35;22147;52.388;13.390;2023-02-15T12:33:35;7.74;76.65
47757;SHT35;22147;52.388;13.390;2023-02-15T12:36:43;8.06;75.30
47757;SHT35;22147;52.388;13.390;2023-02-15T12:39:21;8.16;74.56
47757;SHT35;22147;52.388;13.390;2023-02-15T12:44:33;8.48;74.20
47757;SHT35;22147;52.388;13.390;2023-02-15T12:50:13;8.53;74.59
47757;SHT35;22147;52.388;13.390;2023-02-15T12:53:02;8.51;74.42
47757;SHT35;22147;52.388;13.390;2023-02-15T12:55:35;8.57;74.04
47757;SHT35;22147;52.388;13.390;2023-02-15T12:58:30;8.82;72.38
47757;SHT35;22147;52.388;13.390;2023-02-15T13:04:00;9.32;70.14
47757;SHT35;22147;52.388;13.390;2023-02-15T13:06:35;9.22;70.79
47757;SHT35;22147;52.388;13.390;2023-02-15T13:09:20;9.26;71.23
47757;SHT35;22147;52.388;13.390;2023-02-15T13:11:52;9.55;68.92
47757;SHT35;22147;52.388;13.390;2023-02-15T13:14:32;9.61;69.00
47757;SHT35;22147;52.388;13.390;2023-02-15T13:17:04;9.55;68.76
47757;SHT35;22147;52.388;13.390;2023-02-15T13:19:46;9.71;68.93
47757;SHT35;22147;52.388;13.390;2023-02-15T13:22:31;9.81;68.02
47757;SHT35;22147;52.388;13.390;2023-02-15T13:25:20;10.06;67.68
47757;SHT35;22147;52.388;13.390;2023-02-15T13:28:02;10.32;66.63
47757;SHT35;22147;52.388;13.390;2023-02-15T13:30:43;10.39;66.02
47757;SHT35;22147;52.388;13.390;2023-02-15T13:33:36;10.29;66.55
47757;SHT35;22147;52.388;13.390;2023-02-15T13:37:25;10.50;66.09
47757;SHT35;22147;52.388;13.390;2023-02-15T13:40:03;10.55;65.57
47757;SHT35;22147;52.388;13.390;2023-02-15T13:42:47;10.33;66.32
47757;SHT35;22147;52.388;13.390;2023-02-15T13:52:28;10.53;66.15
47757;SHT35;22147;52.388;13.390;2023-02-15T13:55:53;10.88;65.45
47757;SHT35;22147;52.388;13.390;2023-02-15T14:11:29;11.12;65.28
47757;SHT35;22147;52.388;13.390;2023-02-15T14:18:36;11.43;64.70
47757;SHT35;22147;52.388;13.390;2023-02-15T14:21:34;11.60;64.71
47757;SHT35;22147;52.388;13.390;2023-02-15T14:27:44;11.98;63.69
47757;SHT35;22147;52.388;13.390;2023-02-15T14:30:39;11.84;63.08
47757;SHT35;22147;52.388;13.390;2023-02-15T14:33:52;11.71;63.27
47757;SHT35;22147;52.388;13.390;2023-02-15T14:36:28;11.63;63.38
47757;SHT35;22147;52.388;13.390;2023-02-15T14:39:52;11.82;63.47
47757;SHT35;22147;52.388;13.390;2023-02-15T14:43:14;11.74;64.14
47757;SHT35;22147;52.388;13.390;2023-02-15T14:48:58;11.60;62.88
47757;SHT35;22147;52.388;13.390;2023-02-15T14:59:56;11.29;63.74
47757;SHT35;22147;52.388;13.390;2023-02-15T15:02:51;10.99;64.22
47757;SHT35;22147;52.388;13.390;2023-02-15T15:05:47;10.78;65.34
47757;SHT35;22147;52.388;13.390;2023-02-15T15:08:34;10.64;65.63
47757;SHT35;22147;52.388;13.390;2023-02-15T15:11:48;10.49;66.57
47757;SHT35;22147;52.388;13.390;2023-02-15T15:17:10;10.43;66.99
47757;SHT35;22147;52.388;13.390;2023-02-15T15:22:29;10.11;68.28
47757;SHT35;22147;52.388;13.390;2023-02-15T15:28:02;9.75;69.25
47757;SHT35;22147;52.388;13.390;2023-02-15T15:37:25;9.32;70.94
47757;SHT35;22147;52.388;13.390;2023-02-15T15:40:34;9.09;71.35
47757;SHT35;22147;52.388;13.390;2023-02-15T15:49:39;8.40;73.89
47757;SHT35;22147;52.388;13.390;2023-02-15T15:52:19;8.19;74.97
47757;SHT35;22147;52.388;13.390;2023-02-15T15:55:14;7.93;75.62
47757;SHT35;22147;52.388;13.390;2023-02-15T15:57:52;7.76;75.99
47757;SHT35;22147;52.388;13.390;2023-02-15T16:00:41;7.57;76.88
47757;SHT35;22147;52.388;13.390;2023-02-15T16:03:27;7.34;77.62
47757;SHT35;22147;52.388;13.390;2023-02-15T16:05:56;7.14;78.00
47757;SHT35;22147;52.388;13.390;2023-02-15T16:08:38;6.99;78.46
47757;SHT35;22147;52.388;13.390;2023-02-15T16:11:29;6.78;79.05
47757;SHT35;22147;52.388;13.390;2023-02-15T16:13:59;6.62;79.65
47757;SHT35;22147;52.388;13.390;2023-02-15T16:16:30;6.44;80.25
47757;SHT35;22147;52.388;13.390;2023-02-15T16:18:59;6.28;80.77
47757;SHT35;22147;52.388;13.390;2023-02-15T16:21:37;6.11;81.28
47757;SHT35;22147;52.388;13.390;2023-02-15T16:24:37;5.96;81.73
47757;SHT35;22147;52.388;13.390;2023-02-15T16:27:38;5.82;82.14
47757;SHT35;22147;52.388;13.390;2023-02-15T16:30:26;5.70;82.74
47757;SHT35;22147;52.388;13.390;2023-02-15T16:33:15;5.55;83.02
47757;SHT35;22147;52.388;13.390;2023-02-15T16:35:59;5.41;83.33
47757;SHT35;22147;52.388;13.390;2023-02-15T16:41:20;5.21;84.25
47757;SHT35;22147;52.388;13.390;2023-02-15T16:43:56;5.05;84.36
47757;SHT35;22147;52.388;13.390;2023-02-15T16:46:40;4.94;85.06
47757;SHT35;22147;52.388;13.390;2023-02-15T16:49:25;4.84;85.78
47757;SHT35;22147;52.388;13.390;2023-02-15T16:52:06;4.74;85.92
47757;SHT35;22147;52.388;13.390;2023-02-15T16:54:37;4.60;86.07
47757;SHT35;22147;52.388;13.390;2023-02-15T16:57:27;4.49;86.43
47757;SHT35;22147;52.388;13.390;2023-02-15T17:00:18;4.38;86.45
47757;SHT35;22147;52.388;13.390;2023-02-15T17:03:27;4.28;86.66
47757;SHT35;22147;52.388;13.390;2023-02-15T17:06:00;4.16;86.97
47757;SHT35;22147;52.388;13.390;2023-02-15T17:08:44;4.04;87.01
47757;SHT35;22147;52.388;13.390;2023-02-15T17:16:54;3.81;87.80
47757;SHT35;22147;52.388;13.390;2023-02-15T17:19:39;3.71;88.13
47757;SHT35;22147;52.388;13.390;2023-02-15T17:22:25;3.63;88.01
47757;SHT35;22147;52.388;13.390;2023-02-15T17:25:03;3.55;87.91
47757;SHT35;22147;52.388;13.390;2023-02-15T17:27:34;3.46;87.98
47757;SHT35;22147;52.388;13.390;2023-02-15T17:30:36;3.42;88.00
47757;SHT35;22147;52.388;13.390;2023-02-15T17:36:20;3.36;88.36
47757;SHT35;22147;52.388;13.390;2023-02-15T17:41:35;3.22;89.07
47757;SHT35;22147;52.388;13.390;2023-02-15T17:44:06;3.15;89.22
47757;SHT35;22147;52.388;13.390;2023-02-15T17:46:42;3.07;89.22
47757;SHT35;22147;52.388;13.390;2023-02-15T17:49:25;3.01;89.23
47757;SHT35;22147;52.388;13.390;2023-02-15T17:52:04;2.88;89.28
47757;SHT35;22147;52.388;13.390;2023-02-15T17:54:34;2.81;89.42
47757;SHT35;22147;52.388;13.390;2023-02-15T17:57:22;2.78;89.61
47757;SHT35;22147;52.388;13.390;2023-02-15T17:59:53;2.71;89.77
47757;SHT35;22147;52.388;13.390;2023-02-15T18:02:43;2.64;89.95
47757;SHT35;22147;52.388;13.390;2023-02-15T18:05:31;2.58;89.93
47757;SHT35;22147;52.388;13.390;2023-02-15T18:08:26;2.53;90.03
47757;SHT35;22147;52.388;13.390;2023-02-15T18:11:15;2.44;90.17
47757;SHT35;22147;52.388;13.390;2023-02-15T18:14:08;2.40;90.35
47757;SHT35;22147;52.388;13.390;2023-02-15T18:16:43;2.37;90.37
47757;SHT35;22147;52.388;13.390;2023-02-15T18:19:25;2.30;90.35
47757;SHT35;22147;52.388;13.390;2023-02-15T18:21:54;2.26;90.42
47757;SHT35;22147;52.388;13.390;2023-02-15T18:24:26;2.22;90.49
47757;SHT35;22147;52.388;13.390;2023-02-15T18:26:54;2.19;90.60
47757;SHT35;22147;52.388;13.390;2023-02-15T18:29:22;2.16;90.75
47757;SHT35;22147;52.388;13.390;2023-02-15T18:31:55;2.13;90.72
47757;SHT35;22147;52.388;13.390;2023-02-15T18:34:37;2.09;90.73
47757;SHT35;22147;52.388;13.390;2023-02-15T18:37:31;2.08;90.81
47757;SHT35;22147;52.388;13.390;2023-02-15T18:40:02;2.02;90.82
47757;SHT35;22147;52.388;13.390;2023-02-15T18:42:34;1.98;90.86
47757;SHT35;22147;52.388;13.390;2023-02-15T18:45:27;1.95;90.86
47757;SHT35;22147;52.388;13.390;2023-02-15T18:48:01;1.92;90.96
47757;SHT35;22147;52.388;13.390;2023-02-15T18:50:35;1.86;91.05
47757;SHT35;22147;52.388;13.390;2023-02-15T18:53:18;1.84;91.21
47757;SHT35;22147;52.388;13.390;2023-02-15T18:55:46;1.81;91.44
47757;SHT35;22147;52.388;13.390;2023-02-15T18:58:21;1.81;91.70
47757;SHT35;22147;52.388;13.390;2023-02-15T19:00:53;1.78;91.76
47757;SHT35;22147;52.388;13.390;2023-02-15T19:03:23;1.74;91.73
47757;SHT35;22147;52.388;13.390;2023-02-15T19:05:53;1.70;91.71
47757;SHT35;22147;52.388;13.390;2023-02-15T19:08:23;1.70;91.86
47757;SHT35;22147;52.388;13.390;2023-02-15T19:10:54;1.64;92.01
47757;SHT35;22147;52.388;13.390;2023-02-15T19:13:24;1.61;92.07
47757;SHT35;22147;52.388;13.390;2023-02-15T19:15:54;1.57;92.09
47757;SHT35;22147;52.388;13.390;2023-02-15T19:18:24;1.51;92.06